createdAt,value
2023-03-06T00:02:23.264Z,5.40
2023-03-06T00:04:49.786Z,5.38
2023-03-06T00:07:16.373Z,5.24
2023-03-06T00:09:42.927Z,5.09
2023-03-06T00:12:09.588Z,5.17
2023-03-06T00:14:36.134Z,5.02
2023-03-06T00:17:02.713Z,5.28
2023-03-06T00:19:29.348Z,5.26
2023-03-06T00:21:55.976Z,5.29
2023-03-06T00:24:22.550Z,5.40
2023-03-06T00:26:49.083Z,5.27
2023-03-06T00:29:15.668Z,5.16
2023-03-06T00:31:46.213Z,5.17
2023-03-06T00:34:12.751Z,5.16
2023-03-06T00:36:39.283Z,5.25
2023-03-06T00:39:05.841Z,5.27
2023-03-06T00:41:32.373Z,5.18
2023-03-06T00:43:58.850Z,5.48
2023-03-06T00:46:25.316Z,5.38
2023-03-06T00:48:51.780Z,5.14
2023-03-06T00:51:19.706Z,5.25
2023-03-06T00:53:46.267Z,5.22
2023-03-06T00:56:12.918Z,5.24
2023-03-06T00:58:39.477Z,5.28
2023-03-06T01:01:06.038Z,5.30
2023-03-06T01:03:32.572Z,5.12
2023-03-06T01:05:59.225Z,5.51
2023-03-06T01:08:25.747Z,5.26
2023-03-06T01:10:52.266Z,5.40
2023-03-06T01:13:18.856Z,5.33
2023-03-06T01:15:45.396Z,5.27
2023-03-06T01:18:12.050Z,5.07
2023-03-06T01:20:38.686Z,4.95
2023-03-06T01:23:05.267Z,5.28
2023-03-06T01:25:31.799Z,5.17
2023-03-06T01:27:58.365Z,5.29
2023-03-06T01:30:24.857Z,5.31
2023-03-06T01:32:51.403Z,5.12
2023-03-06T01:35:18.783Z,5.26
2023-03-06T01:37:45.437Z,5.27
2023-03-06T01:40:13.125Z,5.45
2023-03-06T01:42:39.868Z,5.32
2023-03-06T01:45:12.436Z,5.17
2023-03-06T01:47:39.146Z,5.37
2023-03-06T01:50:08.529Z,5.33
2023-03-06T01:52:45.188Z,5.39
2023-03-06T01:55:17.198Z,5.22
2023-03-06T01:57:52.413Z,5.25
2023-03-06T02:00:22.882Z,5.11
2023-03-06T02:03:00.689Z,5.17
2023-03-06T02:05:27.336Z,5.29
2023-03-06T02:07:54.520Z,5.11
2023-03-06T02:10:21.858Z,5.11
2023-03-06T02:12:50.358Z,4.94
2023-03-06T02:15:20.578Z,5.19
2023-03-06T02:17:49.716Z,5.00
2023-03-06T02:20:25.026Z,4.90
2023-03-06T02:23:02.977Z,4.88
2023-03-06T02:25:48.293Z,4.60
2023-03-06T02:28:18.687Z,4.78
2023-03-06T02:30:46.868Z,4.79
2023-03-06T02:33:15.268Z,4.47
2023-03-06T02:35:57.576Z,4.78
2023-03-06T02:38:28.472Z,5.06
2023-03-06T02:40:57.874Z,4.78
2023-03-06T02:43:28.796Z,4.75
2023-03-06T02:45:55.462Z,4.81
2023-03-06T02:48:22.053Z,4.69
2023-03-06T02:50:48.747Z,4.79
2023-03-06T02:53:17.153Z,4.91
2023-03-06T02:55:43.854Z,4.69
2023-03-06T02:58:10.767Z,4.87
2023-03-06T03:00:37.313Z,4.92
2023-03-06T03:03:05.332Z,4.86
2023-03-06T03:05:32.328Z,4.84
2023-03-06T03:07:58.835Z,5.17
2023-03-06T03:10:25.527Z,5.05
2023-03-06T03:12:52.006Z,5.05
2023-03-06T03:15:18.897Z,5.07
2023-03-06T03:17:45.397Z,4.89
2023-03-06T03:20:15.638Z,4.67
2023-03-06T03:22:42.236Z,4.74
2023-03-06T03:25:09.237Z,4.67
2023-03-06T03:27:35.753Z,4.71
2023-03-06T03:30:02.320Z,4.62
2023-03-06T03:32:29.257Z,4.57
2023-03-06T03:34:56.252Z,4.97
2023-03-06T03:37:23.167Z,4.96
2023-03-06T03:39:49.749Z,4.71
2023-03-06T03:42:16.303Z,4.51
2023-03-06T03:44:42.787Z,4.66
2023-03-06T03:47:09.270Z,4.77
2023-03-06T03:49:35.827Z,4.65
2023-03-06T03:52:02.377Z,4.86
2023-03-06T03:54:29.595Z,4.76
2023-03-06T03:56:56.174Z,4.78
2023-03-06T03:59:22.715Z,4.71
2023-03-06T04:01:49.570Z,4.74
2023-03-06T04:04:16.323Z,4.74
2023-03-06T04:06:42.863Z,4.85
2023-03-06T04:09:09.896Z,4.73
2023-03-06T04:11:36.400Z,4.55
2023-03-06T04:14:03.358Z,4.64
2023-03-06T04:16:30.032Z,4.76
2023-03-06T04:18:56.625Z,4.75
2023-03-06T04:21:23.133Z,4.66
2023-03-06T04:23:49.656Z,4.68
2023-03-06T04:26:16.252Z,4.80
2023-03-06T04:28:42.738Z,4.99
2023-03-06T04:31:12.177Z,4.89
2023-03-06T04:33:38.859Z,4.95
2023-03-06T04:36:05.910Z,4.80
2023-03-06T04:38:32.498Z,4.88
2023-03-06T04:40:59.053Z,5.00
2023-03-06T04:43:25.780Z,4.80
2023-03-06T04:45:52.375Z,4.79
2023-03-06T04:48:20.253Z,4.80
2023-03-06T04:50:46.797Z,4.81
2023-03-06T04:53:14.489Z,5.02
2023-03-06T04:55:41.058Z,4.74
2023-03-06T04:58:07.610Z,4.65
2023-03-06T05:00:34.657Z,4.72
2023-03-06T05:03:02.273Z,4.85
2023-03-06T05:05:29.456Z,4.87
2023-03-06T05:07:56.479Z,4.54
2023-03-06T05:10:23.826Z,4.79
2023-03-06T05:12:50.443Z,4.65
2023-03-06T05:15:17.107Z,4.83
2023-03-06T05:17:44.058Z,4.72
2023-03-06T05:20:12.091Z,4.87
2023-03-06T05:22:38.838Z,4.89
2023-03-06T05:25:06.444Z,4.91
2023-03-06T05:27:33.591Z,4.66
2023-03-06T05:30:00.396Z,4.91
2023-03-06T05:32:26.922Z,4.77
2023-03-06T05:34:53.577Z,4.94
2023-03-06T05:37:20.183Z,4.59
2023-03-06T05:39:46.953Z,4.80
2023-03-06T05:42:13.549Z,4.90
2023-03-06T05:44:41.659Z,4.78
2023-03-06T05:47:09.272Z,4.74
2023-03-06T05:49:36.545Z,4.78
2023-03-06T05:52:04.822Z,4.75
2023-03-06T05:54:33.000Z,4.59
2023-03-06T05:56:59.620Z,4.84
2023-03-06T05:59:28.432Z,5.10
2023-03-06T06:01:55.890Z,4.72
2023-03-06T06:04:23.636Z,4.73
2023-03-06T06:06:59.827Z,4.67
2023-03-06T06:09:28.054Z,4.96
2023-03-06T06:11:57.393Z,4.81
2023-03-06T06:14:24.231Z,4.71
2023-03-06T06:16:50.964Z,4.96
2023-03-06T06:19:20.444Z,4.81
2023-03-06T06:21:51.905Z,4.77
2023-03-06T06:24:20.967Z,4.92
2023-03-06T06:26:50.733Z,4.87
2023-03-06T06:29:17.550Z,5.01
2023-03-06T06:31:45.007Z,4.87
2023-03-06T06:34:12.204Z,4.92
2023-03-06T06:36:39.889Z,4.77
2023-03-06T06:39:07.921Z,4.81
2023-03-06T06:41:54.874Z,4.75
2023-03-06T06:44:21.604Z,5.06
2023-03-06T06:49:36.611Z,4.58
2023-03-06T06:52:03.529Z,4.93
2023-03-06T06:54:30.009Z,4.65
2023-03-06T06:56:56.676Z,4.49
2023-03-06T06:59:23.824Z,4.89
2023-03-06T07:01:51.960Z,4.85
2023-03-06T07:04:19.347Z,4.71
2023-03-06T07:06:45.987Z,4.84
2023-03-06T07:09:12.831Z,4.88
2023-03-06T07:11:40.357Z,4.87
2023-03-06T07:14:06.949Z,5.18
2023-03-06T07:16:33.595Z,5.13
2023-03-06T07:19:00.100Z,5.41
2023-03-06T07:21:26.633Z,5.40
2023-03-06T07:23:54.268Z,5.80
2023-03-06T07:26:20.887Z,5.60
2023-03-06T07:28:52.762Z,5.39
2023-03-06T07:31:22.366Z,5.46
2023-03-06T07:33:50.214Z,5.15
2023-03-06T07:36:17.206Z,5.75
2023-03-06T07:38:43.859Z,5.61
2023-03-06T07:41:13.447Z,6.01
2023-03-06T07:43:41.257Z,5.37
2023-03-06T07:46:08.462Z,5.90
2023-03-06T07:48:36.794Z,6.07
2023-03-06T07:51:07.146Z,6.02
2023-03-06T07:53:34.836Z,5.87
2023-03-06T07:56:08.418Z,6.09
2023-03-06T07:58:43.473Z,6.56
2023-03-06T08:01:13.261Z,6.27
2023-03-06T08:03:39.896Z,6.39
2023-03-06T08:06:12.480Z,6.66
2023-03-06T08:08:41.130Z,6.80
2023-03-06T08:11:09.089Z,6.87
2023-03-06T08:13:35.965Z,6.55
2023-03-06T08:16:03.373Z,6.71
2023-03-06T08:18:30.100Z,6.46
2023-03-06T08:21:11.799Z,6.58
2023-03-06T08:23:39.083Z,6.51
2023-03-06T08:26:10.714Z,6.38
2023-03-06T08:28:37.268Z,7.07
2023-03-06T08:31:31.647Z,6.90
2023-03-06T08:34:00.410Z,6.86
2023-03-06T08:36:27.324Z,7.09
2023-03-06T08:38:54.532Z,6.69
2023-03-06T08:41:21.399Z,7.16
2023-03-06T08:43:48.161Z,7.12
2023-03-06T08:46:15.466Z,7.02
2023-03-06T08:48:42.149Z,6.78
2023-03-06T08:51:09.761Z,6.77
2023-03-06T08:53:43.038Z,7.20
2023-03-06T08:56:19.285Z,7.11
2023-03-06T08:58:46.760Z,6.64
2023-03-06T09:01:35.124Z,7.11
2023-03-06T09:04:05.452Z,7.17
2023-03-06T09:06:34.346Z,7.43
2023-03-06T09:09:00.923Z,7.42
2023-03-06T09:11:28.281Z,8.05
2023-03-06T09:13:55.821Z,7.84
2023-03-06T09:16:23.608Z,7.97
2023-03-06T09:18:54.025Z,7.67
2023-03-06T09:21:22.189Z,7.46
2023-03-06T09:23:48.844Z,7.62
2023-03-06T09:26:15.500Z,7.57
2023-03-06T09:28:42.235Z,7.19
2023-03-06T09:31:15.198Z,6.57
2023-03-06T09:33:41.788Z,6.64
2023-03-06T09:36:13.622Z,7.35
2023-03-06T09:38:40.173Z,7.04
2023-03-06T09:41:24.370Z,7.34
2023-03-06T09:43:55.893Z,7.40
2023-03-06T09:46:22.363Z,7.16
2023-03-06T09:49:16.223Z,7.70
2023-03-06T09:51:51.653Z,6.72
2023-03-06T09:54:23.416Z,6.93
2023-03-06T09:56:50.966Z,6.58
2023-03-06T09:59:21.577Z,6.39
2023-03-06T10:02:02.799Z,6.86
2023-03-06T10:04:37.978Z,7.00
2023-03-06T10:07:14.568Z,6.94
2023-03-06T10:10:04.087Z,6.90
2023-03-06T10:12:43.236Z,7.38
2023-03-06T10:15:19.459Z,7.91
2023-03-06T10:17:46.197Z,7.69
2023-03-06T10:20:17.357Z,7.93
2023-03-06T10:23:00.740Z,7.53
2023-03-06T10:25:44.058Z,7.75
2023-03-06T10:28:10.620Z,8.31
2023-03-06T10:31:06.759Z,8.14
2023-03-06T10:33:52.654Z,8.68
2023-03-06T10:36:27.179Z,8.57
2023-03-06T10:38:56.015Z,9.26
2023-03-06T10:41:36.065Z,10.14
2023-03-06T10:44:02.557Z,10.31
2023-03-06T10:46:37.795Z,9.74
2023-03-06T10:49:09.130Z,10.21
2023-03-06T10:51:35.745Z,11.05
2023-03-06T10:54:18.831Z,10.51
2023-03-06T10:56:47.159Z,11.39
2023-03-06T10:59:17.939Z,12.43
2023-03-06T11:01:50.236Z,12.83
2023-03-06T11:04:23.463Z,13.33
2023-03-06T11:07:20.622Z,14.42
2023-03-06T11:10:05.382Z,14.40
2023-03-06T11:12:40.091Z,15.52
2023-03-06T11:15:06.595Z,14.54
2023-03-06T11:17:35.977Z,15.15
2023-03-06T11:20:14.792Z,15.47
2023-03-06T11:22:42.005Z,16.03
2023-03-06T11:25:15.114Z,17.76
2023-03-06T11:27:44.095Z,16.91
2023-03-06T11:30:41.520Z,16.56
2023-03-06T11:33:23.729Z,15.20
2023-03-06T11:36:22.939Z,15.63
2023-03-06T11:38:54.030Z,14.49
2023-03-06T11:41:33.660Z,14.69
2023-03-06T11:44:12.868Z,13.32
2023-03-06T11:47:06.073Z,11.08
2023-03-06T11:49:38.132Z,10.76
2023-03-06T11:52:10.446Z,11.82
2023-03-06T11:54:37.083Z,12.13
2023-03-06T11:57:30.081Z,12.07
2023-03-06T12:00:22.107Z,15.91
2023-03-06T12:03:18.454Z,14.70
2023-03-06T12:06:01.090Z,11.97
2023-03-06T12:08:42.945Z,12.75
2023-03-06T12:11:20.535Z,14.57
2023-03-06T12:14:02.122Z,13.33
2023-03-06T12:16:55.760Z,10.91
2023-03-06T12:19:34.139Z,10.84
2023-03-06T12:22:12.627Z,10.76
2023-03-06T12:25:05.707Z,10.54
2023-03-06T12:27:43.911Z,13.42
2023-03-06T12:30:10.649Z,12.86
2023-03-06T12:33:03.021Z,11.39
2023-03-06T12:35:38.527Z,10.99
2023-03-06T12:38:24.417Z,10.68
2023-03-06T12:40:59.255Z,9.58
2023-03-06T12:43:43.926Z,9.76
2023-03-06T12:46:18.778Z,9.92
2023-03-06T12:48:55.600Z,10.93
2023-03-06T12:51:22.563Z,13.62
2023-03-06T12:53:50.380Z,12.85
2023-03-06T12:56:18.890Z,12.84
2023-03-06T12:58:52.475Z,12.13
2023-03-06T13:01:55.938Z,10.58
2023-03-06T13:04:47.574Z,10.06
2023-03-06T13:07:17.146Z,10.03
2023-03-06T13:10:08.281Z,10.18
2023-03-06T13:12:46.815Z,11.02
2023-03-06T13:15:34.866Z,9.65
2023-03-06T13:18:02.554Z,9.99
2023-03-06T13:20:40.653Z,9.21
2023-03-06T13:23:32.514Z,9.11
2023-03-06T13:26:01.948Z,9.12
2023-03-06T13:28:50.359Z,8.73
2023-03-06T13:31:32.503Z,8.75
2023-03-06T13:34:04.246Z,8.83
2023-03-06T13:36:37.591Z,9.33
2023-03-06T13:39:09.535Z,9.58
2023-03-06T13:41:43.444Z,11.86
2023-03-06T13:44:24.889Z,13.34
2023-03-06T13:47:19.402Z,11.10
2023-03-06T13:49:48.299Z,9.75
2023-03-06T13:52:42.260Z,9.15
2023-03-06T13:55:29.967Z,8.72
2023-03-06T13:57:59.287Z,9.04
2023-03-06T14:00:49.815Z,8.97
2023-03-06T14:03:34.504Z,9.03
2023-03-06T14:06:01.254Z,8.58
2023-03-06T14:08:31.387Z,8.61
2023-03-06T14:11:00.833Z,8.34
2023-03-06T14:13:41.866Z,9.08
2023-03-06T14:16:23.191Z,8.61
2023-03-06T14:18:51.954Z,8.45
2023-03-06T14:21:44.338Z,8.36
2023-03-06T14:24:20.080Z,8.06
2023-03-06T14:26:51.265Z,7.93
2023-03-06T14:29:23.560Z,8.77
2023-03-06T14:31:52.404Z,8.82
2023-03-06T14:34:26.505Z,8.63
2023-03-06T14:37:00.191Z,9.05
2023-03-06T14:39:36.020Z,9.06
2023-03-06T14:42:08.565Z,8.80
2023-03-06T14:44:35.361Z,9.53
2023-03-06T14:47:21.578Z,9.49
2023-03-06T14:50:01.022Z,9.47
2023-03-06T14:52:28.121Z,9.01
2023-03-06T14:54:54.750Z,8.74
2023-03-06T14:57:23.184Z,8.88
2023-03-06T14:59:56.082Z,9.22
2023-03-06T15:02:26.894Z,9.05
2023-03-06T15:05:05.314Z,9.04
2023-03-06T15:07:33.585Z,9.10
2023-03-06T15:10:00.985Z,8.72
2023-03-06T15:12:29.498Z,8.77
2023-03-06T15:15:20.091Z,9.17
2023-03-06T15:17:48.410Z,9.18
2023-03-06T15:20:36.770Z,9.39
2023-03-06T15:23:03.468Z,9.60
2023-03-06T15:25:31.782Z,9.07
2023-03-06T15:28:00.036Z,8.94
2023-03-06T15:30:36.602Z,8.45
2023-03-06T15:33:23.690Z,8.60
2023-03-06T15:35:57.807Z,8.34
2023-03-06T15:38:42.591Z,8.43
2023-03-06T15:41:48.497Z,8.18
2023-03-06T15:44:15.234Z,7.82
2023-03-06T15:46:41.985Z,7.60
2023-03-06T15:49:17.518Z,7.92
2023-03-06T15:51:44.515Z,8.17
2023-03-06T15:54:12.559Z,8.06
2023-03-06T15:56:41.923Z,8.06
2023-03-06T15:59:16.847Z,8.00
2023-03-06T16:01:43.668Z,7.93
2023-03-06T16:04:10.389Z,7.59
2023-03-06T16:06:37.709Z,7.68
2023-03-06T16:09:05.769Z,7.55
2023-03-06T16:11:43.427Z,7.63
2023-03-06T16:14:23.909Z,7.46
2023-03-06T16:16:54.002Z,7.44
2023-03-06T16:19:26.248Z,7.61
2023-03-06T16:21:54.161Z,7.15
2023-03-06T16:24:20.900Z,7.50
2023-03-06T16:26:53.348Z,7.47
2023-03-06T16:29:23.686Z,7.80
2023-03-06T16:31:50.724Z,7.90
2023-03-06T16:34:19.815Z,7.49
2023-03-06T16:36:48.140Z,7.23
2023-03-06T16:39:16.939Z,7.14
2023-03-06T16:41:45.719Z,7.40
2023-03-06T16:44:12.765Z,7.60
2023-03-06T16:46:42.680Z,7.63
2023-03-06T16:49:38.436Z,7.75
2023-03-06T16:52:05.165Z,7.26
2023-03-06T16:54:31.699Z,7.30
2023-03-06T16:56:58.194Z,7.05
2023-03-06T16:59:25.287Z,6.63
2023-03-06T17:01:51.891Z,7.00
2023-03-06T17:04:18.461Z,6.75
2023-03-06T17:06:45.076Z,7.00
2023-03-06T17:09:11.636Z,6.68
2023-03-06T17:11:43.397Z,6.76
2023-03-06T17:14:10.275Z,6.83
2023-03-06T17:16:40.142Z,6.55
2023-03-06T17:19:07.426Z,6.54
2023-03-06T17:21:35.363Z,6.64
2023-03-06T17:24:03.772Z,6.39
2023-03-06T17:26:30.519Z,6.61
2023-03-06T17:28:57.362Z,6.69
2023-03-06T17:31:26.719Z,6.29
2023-03-06T17:33:57.075Z,6.43
2023-03-06T17:36:23.664Z,6.47
2023-03-06T17:38:50.578Z,6.59
2023-03-06T17:41:17.121Z,6.34
2023-03-06T17:43:43.737Z,6.18
2023-03-06T17:46:12.439Z,6.49
2023-03-06T17:48:39.539Z,6.48
2023-03-06T17:51:06.706Z,6.09
2023-03-06T17:53:33.656Z,6.17
2023-03-06T17:56:03.273Z,6.23
2023-03-06T17:58:29.854Z,6.14
2023-03-06T18:00:56.447Z,6.25
2023-03-06T18:03:26.007Z,6.23
2023-03-06T18:06:04.929Z,6.10
2023-03-06T18:08:32.245Z,6.21
2023-03-06T18:11:04.299Z,6.23
2023-03-06T18:13:32.392Z,6.00
2023-03-06T18:16:00.392Z,6.05
2023-03-06T18:18:27.421Z,6.16
2023-03-06T18:20:54.227Z,5.93
2023-03-06T18:23:20.826Z,5.83
2023-03-06T18:25:47.561Z,5.73
2023-03-06T18:28:14.210Z,5.89
2023-03-06T18:30:42.343Z,5.59
2023-03-06T18:33:10.041Z,5.83
2023-03-06T18:35:37.166Z,5.91
2023-03-06T18:38:03.735Z,5.87
2023-03-06T18:40:30.261Z,5.95
2023-03-06T18:42:56.789Z,5.91
2023-03-06T18:45:23.338Z,5.73
2023-03-06T18:47:49.847Z,5.83
2023-03-06T18:50:17.600Z,5.62
2023-03-06T18:52:44.297Z,5.52
2023-03-06T18:55:11.445Z,5.54
2023-03-06T18:57:38.383Z,5.79
2023-03-06T19:00:06.771Z,5.56
2023-03-06T19:02:33.317Z,5.50
2023-03-06T19:05:00.043Z,5.49
2023-03-06T19:07:26.661Z,5.65
2023-03-06T19:09:53.294Z,5.41
2023-03-06T19:12:19.879Z,5.53
2023-03-06T19:14:46.435Z,5.69
2023-03-06T19:17:13.048Z,5.59
2023-03-06T19:19:39.578Z,5.28
2023-03-06T19:22:06.174Z,5.20
2023-03-06T19:24:32.779Z,5.25
2023-03-06T19:26:59.363Z,5.31
2023-03-06T19:29:25.999Z,5.31
2023-03-06T19:31:52.835Z,5.35
2023-03-06T19:34:19.416Z,5.23
2023-03-06T19:36:45.982Z,5.13
2023-03-06T19:39:12.741Z,5.16
2023-03-06T19:41:39.213Z,4.95
2023-03-06T19:44:05.989Z,4.90
2023-03-06T19:46:33.026Z,4.86
2023-03-06T19:49:02.111Z,4.95
2023-03-06T19:51:29.565Z,4.97
2023-03-06T19:53:57.656Z,4.87
2023-03-06T19:56:26.681Z,5.02
2023-03-06T19:58:53.669Z,4.74
2023-03-06T20:01:22.191Z,4.66
2023-03-06T20:03:50.537Z,4.56
2023-03-06T20:06:19.776Z,4.64
2023-03-06T20:08:47.548Z,4.54
2023-03-06T20:11:25.970Z,4.44
2023-03-06T20:13:53.454Z,4.43
2023-03-06T20:16:20.268Z,4.63
2023-03-06T20:18:46.955Z,4.52
2023-03-06T20:21:14.242Z,4.43
2023-03-06T20:23:41.366Z,4.42
2023-03-06T20:26:12.475Z,4.42
2023-03-06T20:28:41.021Z,4.44
2023-03-06T20:31:10.091Z,4.35
2023-03-06T20:33:36.881Z,4.22
2023-03-06T20:36:03.965Z,4.21
2023-03-06T20:38:31.602Z,4.42
2023-03-06T20:40:59.701Z,4.10
2023-03-06T20:43:26.398Z,4.01
2023-03-06T20:46:01.548Z,4.06
2023-03-06T20:48:29.151Z,4.13
2023-03-06T20:51:22.880Z,4.19
2023-03-06T20:53:52.891Z,4.30
2023-03-06T20:56:21.896Z,3.94
2023-03-06T20:58:48.434Z,4.04
2023-03-06T21:01:25.198Z,4.11
2023-03-06T21:03:53.423Z,4.45
2023-03-06T21:06:21.232Z,4.12
2023-03-06T21:08:47.819Z,3.97
2023-03-06T21:11:14.857Z,3.99
2023-03-06T21:13:41.557Z,3.88
2023-03-06T21:16:11.789Z,3.92
2023-03-06T21:18:39.753Z,3.82
2023-03-06T21:21:07.665Z,3.78
2023-03-06T21:23:34.291Z,3.89
2023-03-06T21:26:00.839Z,3.81
2023-03-06T21:28:27.414Z,3.94
2023-03-06T21:30:54.039Z,3.90
2023-03-06T21:33:20.687Z,3.84
2023-03-06T21:35:47.384Z,3.95
2023-03-06T21:38:14.488Z,3.91
2023-03-06T21:40:41.276Z,3.82
2023-03-06T21:43:08.862Z,3.87
2023-03-06T21:45:35.556Z,3.79
2023-03-06T21:48:02.127Z,3.85
2023-03-06T21:50:28.703Z,4.03
2023-03-06T21:52:56.468Z,3.97
2023-03-06T21:55:23.389Z,4.22
2023-03-06T21:57:54.294Z,4.04
2023-03-06T22:00:23.208Z,4.22
2023-03-06T22:02:50.592Z,4.03
2023-03-06T22:05:17.325Z,3.88
2023-03-06T22:07:43.926Z,4.09
2023-03-06T22:10:15.632Z,3.67
2023-03-06T22:12:42.192Z,4.03
2023-03-06T22:15:09.615Z,4.00
2023-03-06T22:17:36.303Z,4.08
2023-03-06T22:20:04.128Z,3.77
2023-03-06T22:22:31.226Z,3.90
2023-03-06T22:24:58.338Z,3.77
2023-03-06T22:27:25.160Z,3.93
2023-03-06T22:29:53.127Z,3.83
2023-03-06T22:32:20.228Z,3.85
2023-03-06T22:34:46.907Z,3.71
2023-03-06T22:37:13.487Z,3.99
2023-03-06T22:39:40.153Z,3.76
2023-03-06T22:42:06.768Z,3.77
2023-03-06T22:44:33.334Z,3.68
2023-03-06T22:46:59.866Z,3.88
2023-03-06T22:49:26.430Z,3.76
2023-03-06T22:51:53.034Z,3.83
2023-03-06T22:54:19.534Z,3.86
2023-03-06T22:56:46.042Z,3.65
2023-03-06T22:59:12.577Z,3.79
2023-03-06T23:01:39.224Z,3.98
2023-03-06T23:04:11.133Z,3.83
2023-03-06T23:06:40.032Z,3.81
2023-03-06T23:09:20.409Z,3.79
2023-03-06T23:11:47.821Z,3.79
2023-03-06T23:14:15.724Z,3.83
2023-03-06T23:16:42.406Z,3.94
2023-03-06T23:19:08.972Z,4.15
2023-03-06T23:21:35.728Z,3.92
2023-03-06T23:24:02.925Z,4.29
2023-03-06T23:26:30.581Z,3.83
2023-03-06T23:28:58.026Z,3.98
2023-03-06T23:31:30.694Z,3.93
2023-03-06T23:33:58.703Z,3.92
2023-03-06T23:36:25.368Z,4.17
2023-03-06T23:38:51.872Z,4.17
2023-03-06T23:41:20.441Z,4.35
2023-03-06T23:43:48.101Z,4.18
2023-03-06T23:46:15.033Z,4.13
2023-03-06T23:48:42.588Z,4.10
2023-03-06T23:51:17.946Z,4.69
2023-03-06T23:53:45.731Z,4.34
2023-03-06T23:56:13.360Z,4.09
2023-03-06T23:58:40.662Z,4.28
